sensor_id;sensor_type;location;lat;lon;timestamp;temperature;humidity
21495;DHT22;10909;53.590;10.054;2022-07-25T00:02:01;27.00;45.80
21495;DHT22;10909;53.590;10.054;2022-07-25T00:04:26;27.00;45.90
21495;DHT22;10909;53.590;10.054;2022-07-25T00:06:52;27.00;45.80
21495;DHT22;10909;53.590;10.054;2022-07-25T00:09:17;26.90;45.80
21495;DHT22;10909;53.590;10.054;2022-07-25T00:11:43;26.90;45.80
21495;DHT22;10909;53.590;10.054;2022-07-25T00:14:09;26.90;45.80
21495;DHT22;10909;53.590;10.054;2022-07-25T00:16:34;26.90;45.80
21495;DHT22;10909;53.590;10.054;2022-07-25T00:19:01;26.90;45.70
21495;DHT22;10909;53.590;10.054;2022-07-25T00:21:26;26.80;45.70
21495;DHT22;10909;53.590;10.054;2022-07-25T00:23:52;26.80;45.70
21495;DHT22;10909;53.590;10.054;2022-07-25T00:26:17;26.70;45.60
21495;DHT22;10909;53.590;10.054;2022-07-25T00:28:43;26.70;45.70
21495;DHT22;10909;53.590;10.054;2022-07-25T00:31:09;26.70;45.70
21495;DHT22;10909;53.590;10.054;2022-07-25T00:33:34;26.70;45.80
21495;DHT22;10909;53.590;10.054;2022-07-25T00:36:00;26.60;46.30
21495;DHT22;10909;53.590;10.054;2022-07-25T00:38:26;26.60;45.80
21495;DHT22;10909;53.590;10.054;2022-07-25T00:40:51;26.60;45.80
21495;DHT22;10909;53.590;10.054;2022-07-25T00:43:17;26.60;45.90
21495;DHT22;10909;53.590;10.054;2022-07-25T00:45:43;26.60;45.90
21495;DHT22;10909;53.590;10.054;2022-07-25T00:48:08;26.60;45.80
21495;DHT22;10909;53.590;10.054;2022-07-25T00:50:35;26.50;45.80
21495;DHT22;10909;53.590;10.054;2022-07-25T00:53:01;26.50;46.00
21495;DHT22;10909;53.590;10.054;2022-07-25T00:55:27;26.50;45.90
21495;DHT22;10909;53.590;10.054;2022-07-25T00:57:53;26.40;46.00
21495;DHT22;10909;53.590;10.054;2022-07-25T01:00:19;26.40;46.00
21495;DHT22;10909;53.590;10.054;2022-07-25T01:02:45;26.30;46.00
21495;DHT22;10909;53.590;10.054;2022-07-25T01:05:11;26.30;46.00
21495;DHT22;10909;53.590;10.054;2022-07-25T01:07:38;26.30;46.70
21495;DHT22;10909;53.590;10.054;2022-07-25T01:10:05;26.30;46.10
21495;DHT22;10909;53.590;10.054;2022-07-25T01:12:31;26.20;46.10
21495;DHT22;10909;53.590;10.054;2022-07-25T01:14:57;26.20;46.10
21495;DHT22;10909;53.590;10.054;2022-07-25T01:17:23;26.20;46.10
21495;DHT22;10909;53.590;10.054;2022-07-25T01:19:48;26.20;46.20
21495;DHT22;10909;53.590;10.054;2022-07-25T01:22:16;26.20;46.20
21495;DHT22;10909;53.590;10.054;2022-07-25T01:24:41;26.10;46.20
21495;DHT22;10909;53.590;10.054;2022-07-25T01:27:07;26.10;46.80
21495;DHT22;10909;53.590;10.054;2022-07-25T01:29:33;26.10;46.20
21495;DHT22;10909;53.590;10.054;2022-07-25T01:31:59;26.10;46.20
21495;DHT22;10909;53.590;10.054;2022-07-25T01:34:27;26.00;46.20
21495;DHT22;10909;53.590;10.054;2022-07-25T01:36:53;26.00;46.20
21495;DHT22;10909;53.590;10.054;2022-07-25T01:39:19;26.00;46.20
21495;DHT22;10909;53.590;10.054;2022-07-25T01:41:44;26.00;46.30
21495;DHT22;10909;53.590;10.054;2022-07-25T01:44:10;25.90;46.30
21495;DHT22;10909;53.590;10.054;2022-07-25T01:46:36;25.90;46.30
21495;DHT22;10909;53.590;10.054;2022-07-25T01:49:02;25.90;46.30
21495;DHT22;10909;53.590;10.054;2022-07-25T01:51:27;25.80;46.30
21495;DHT22;10909;53.590;10.054;2022-07-25T01:53:53;25.80;46.40
21495;DHT22;10909;53.590;10.054;2022-07-25T01:56:18;25.80;46.40
21495;DHT22;10909;53.590;10.054;2022-07-25T01:58:44;25.80;46.40
21495;DHT22;10909;53.590;10.054;2022-07-25T02:01:10;25.80;46.40
21495;DHT22;10909;53.590;10.054;2022-07-25T02:03:35;25.70;46.30
21495;DHT22;10909;53.590;10.054;2022-07-25T02:06:07;25.70;46.40
21495;DHT22;10909;53.590;10.054;2022-07-25T02:08:33;25.70;46.60
21495;DHT22;10909;53.590;10.054;2022-07-25T02:10:59;25.70;46.40
21495;DHT22;10909;53.590;10.054;2022-07-25T02:13:26;25.60;46.40
21495;DHT22;10909;53.590;10.054;2022-07-25T02:15:52;25.60;46.50
21495;DHT22;10909;53.590;10.054;2022-07-25T02:18:18;25.50;47.00
21495;DHT22;10909;53.590;10.054;2022-07-25T02:20:43;25.50;46.50
21495;DHT22;10909;53.590;10.054;2022-07-25T02:23:09;25.50;46.50
21495;DHT22;10909;53.590;10.054;2022-07-25T02:25:35;25.50;46.50
21495;DHT22;10909;53.590;10.054;2022-07-25T02:28:01;25.40;46.90
21495;DHT22;10909;53.590;10.054;2022-07-25T02:30:27;25.40;46.40
21495;DHT22;10909;53.590;10.054;2022-07-25T02:32:52;25.30;46.40
21495;DHT22;10909;53.590;10.054;2022-07-25T02:35:18;25.30;46.90
21495;DHT22;10909;53.590;10.054;2022-07-25T02:37:44;25.30;46.30
21495;DHT22;10909;53.590;10.054;2022-07-25T02:40:10;25.30;46.30
21495;DHT22;10909;53.590;10.054;2022-07-25T02:42:36;25.30;46.30
21495;DHT22;10909;53.590;10.054;2022-07-25T02:45:02;25.20;46.20
21495;DHT22;10909;53.590;10.054;2022-07-25T02:47:28;25.20;46.30
21495;DHT22;10909;53.590;10.054;2022-07-25T02:49:54;25.20;46.20
21495;DHT22;10909;53.590;10.054;2022-07-25T02:52:19;25.10;46.10
21495;DHT22;10909;53.590;10.054;2022-07-25T02:54:45;25.10;46.10
21495;DHT22;10909;53.590;10.054;2022-07-25T02:57:10;25.10;46.10
21495;DHT22;10909;53.590;10.054;2022-07-25T02:59:36;25.10;46.10
21495;DHT22;10909;53.590;10.054;2022-07-25T03:02:02;25.10;46.10
21495;DHT22;10909;53.590;10.054;2022-07-25T03:04:27;25.10;46.10
21495;DHT22;10909;53.590;10.054;2022-07-25T03:06:53;25.00;46.00
21495;DHT22;10909;53.590;10.054;2022-07-25T03:09:18;25.00;46.00
21495;DHT22;10909;53.590;10.054;2022-07-25T03:11:44;25.00;45.90
21495;DHT22;10909;53.590;10.054;2022-07-25T03:14:10;25.00;45.90
21495;DHT22;10909;53.590;10.054;2022-07-25T03:16:35;25.00;45.90
21495;DHT22;10909;53.590;10.054;2022-07-25T03:19:01;25.00;45.90
21495;DHT22;10909;53.590;10.054;2022-07-25T03:21:27;25.00;45.90
21495;DHT22;10909;53.590;10.054;2022-07-25T03:23:53;25.00;45.90
21495;DHT22;10909;53.590;10.054;2022-07-25T03:26:19;25.00;45.90
21495;DHT22;10909;53.590;10.054;2022-07-25T03:28:44;24.90;45.80
21495;DHT22;10909;53.590;10.054;2022-07-25T03:31:10;24.90;45.80
21495;DHT22;10909;53.590;10.054;2022-07-25T03:33:36;24.90;45.80
21495;DHT22;10909;53.590;10.054;2022-07-25T03:36:01;24.90;45.80
21495;DHT22;10909;53.590;10.054;2022-07-25T03:38:27;24.90;45.80
21495;DHT22;10909;53.590;10.054;2022-07-25T03:40:54;24.80;45.80
21495;DHT22;10909;53.590;10.054;2022-07-25T03:43:19;24.80;45.80
21495;DHT22;10909;53.590;10.054;2022-07-25T03:45:45;24.80;45.80
21495;DHT22;10909;53.590;10.054;2022-07-25T03:48:10;24.90;45.80
21495;DHT22;10909;53.590;10.054;2022-07-25T03:50:36;24.80;45.80
21495;DHT22;10909;53.590;10.054;2022-07-25T03:53:02;24.80;45.80
21495;DHT22;10909;53.590;10.054;2022-07-25T03:55:27;24.80;45.80
21495;DHT22;10909;53.590;10.054;2022-07-25T03:57:53;24.80;45.80
21495;DHT22;10909;53.590;10.054;2022-07-25T04:00:19;24.80;45.80
21495;DHT22;10909;53.590;10.054;2022-07-25T04:02:44;24.80;45.80
21495;DHT22;10909;53.590;10.054;2022-07-25T04:05:10;24.80;45.70
21495;DHT22;10909;53.590;10.054;2022-07-25T04:07:36;24.80;45.80
21495;DHT22;10909;53.590;10.054;2022-07-25T04:10:04;24.80;45.80
21495;DHT22;10909;53.590;10.054;2022-07-25T04:12:30;24.80;45.80
21495;DHT22;10909;53.590;10.054;2022-07-25T04:14:55;24.80;45.80
21495;DHT22;10909;53.590;10.054;2022-07-25T04:17:21;24.80;45.80
21495;DHT22;10909;53.590;10.054;2022-07-25T04:19:47;24.80;45.80
21495;DHT22;10909;53.590;10.054;2022-07-25T04:22:12;24.80;45.80
21495;DHT22;10909;53.590;10.054;2022-07-25T04:24:38;24.80;46.40
21495;DHT22;10909;53.590;10.054;2022-07-25T04:27:04;24.80;45.70
21495;DHT22;10909;53.590;10.054;2022-07-25T04:29:29;24.80;45.80
21495;DHT22;10909;53.590;10.054;2022-07-25T04:31:55;24.90;45.70
21495;DHT22;10909;53.590;10.054;2022-07-25T04:34:22;24.90;45.70
21495;DHT22;10909;53.590;10.054;2022-07-25T04:36:47;24.90;45.70
21495;DHT22;10909;53.590;10.054;2022-07-25T04:39:13;24.90;45.60
21495;DHT22;10909;53.590;10.054;2022-07-25T04:41:39;24.90;45.60
21495;DHT22;10909;53.590;10.054;2022-07-25T04:44:04;24.90;45.60
21495;DHT22;10909;53.590;10.054;2022-07-25T04:46:31;24.90;45.60
21495;DHT22;10909;53.590;10.054;2022-07-25T04:48:57;25.00;45.60
21495;DHT22;10909;53.590;10.054;2022-07-25T04:51:23;25.00;45.60
21495;DHT22;10909;53.590;10.054;2022-07-25T04:53:48;25.10;45.60
21495;DHT22;10909;53.590;10.054;2022-07-25T04:56:14;25.10;45.50
21495;DHT22;10909;53.590;10.054;2022-07-25T04:58:40;25.10;45.50
21495;DHT22;10909;53.590;10.054;2022-07-25T05:01:09;25.10;45.50
21495;DHT22;10909;53.590;10.054;2022-07-25T05:03:34;25.20;45.50
21495;DHT22;10909;53.590;10.054;2022-07-25T05:06:00;25.20;45.40
21495;DHT22;10909;53.590;10.054;2022-07-25T05:08:32;25.20;45.30
21495;DHT22;10909;53.590;10.054;2022-07-25T05:10:58;25.20;45.30
21495;DHT22;10909;53.590;10.054;2022-07-25T05:13:24;25.30;45.40
21495;DHT22;10909;53.590;10.054;2022-07-25T05:15:49;25.30;45.30
21495;DHT22;10909;53.590;10.054;2022-07-25T05:18:15;25.30;45.30
21495;DHT22;10909;53.590;10.054;2022-07-25T05:20:41;25.30;45.30
21495;DHT22;10909;53.590;10.054;2022-07-25T05:23:06;25.30;45.30
21495;DHT22;10909;53.590;10.054;2022-07-25T05:25:32;25.30;45.30
21495;DHT22;10909;53.590;10.054;2022-07-25T05:27:58;25.30;45.20
21495;DHT22;10909;53.590;10.054;2022-07-25T05:30:23;25.40;45.20
21495;DHT22;10909;53.590;10.054;2022-07-25T05:32:49;25.40;45.20
21495;DHT22;10909;53.590;10.054;2022-07-25T05:35:15;25.40;45.10
21495;DHT22;10909;53.590;10.054;2022-07-25T05:37:41;25.50;45.20
21495;DHT22;10909;53.590;10.054;2022-07-25T05:40:07;25.50;45.20
21495;DHT22;10909;53.590;10.054;2022-07-25T05:42:33;25.50;45.10
21495;DHT22;10909;53.590;10.054;2022-07-25T05:44:59;25.50;45.10
21495;DHT22;10909;53.590;10.054;2022-07-25T05:47:24;25.60;45.20
21495;DHT22;10909;53.590;10.054;2022-07-25T05:49:50;25.60;45.20
21495;DHT22;10909;53.590;10.054;2022-07-25T05:52:16;25.60;45.20
21495;DHT22;10909;53.590;10.054;2022-07-25T05:54:41;25.70;45.20
21495;DHT22;10909;53.590;10.054;2022-07-25T05:57:07;25.70;45.20
21495;DHT22;10909;53.590;10.054;2022-07-25T05:59:33;25.80;45.20
21495;DHT22;10909;53.590;10.054;2022-07-25T06:02:00;25.80;45.20
21495;DHT22;10909;53.590;10.054;2022-07-25T06:04:26;25.90;45.10
21495;DHT22;10909;53.590;10.054;2022-07-25T06:06:51;25.90;45.10
21495;DHT22;10909;53.590;10.054;2022-07-25T06:09:19;26.00;45.00
21495;DHT22;10909;53.590;10.054;2022-07-25T06:11:45;26.00;45.00
21495;DHT22;10909;53.590;10.054;2022-07-25T06:14:11;26.10;45.10
21495;DHT22;10909;53.590;10.054;2022-07-25T06:16:37;26.10;45.00
21495;DHT22;10909;53.590;10.054;2022-07-25T06:19:02;26.10;45.00
21495;DHT22;10909;53.590;10.054;2022-07-25T06:21:28;26.20;45.10
21495;DHT22;10909;53.590;10.054;2022-07-25T06:23:53;26.20;45.10
21495;DHT22;10909;53.590;10.054;2022-07-25T06:26:19;26.30;45.00
21495;DHT22;10909;53.590;10.054;2022-07-25T06:28:45;26.40;45.70
21495;DHT22;10909;53.590;10.054;2022-07-25T06:31:11;26.40;45.00
21495;DHT22;10909;53.590;10.054;2022-07-25T06:33:37;26.50;45.60
21495;DHT22;10909;53.590;10.054;2022-07-25T06:36:07;26.50;45.00
21495;DHT22;10909;53.590;10.054;2022-07-25T06:38:33;26.60;45.00
21495;DHT22;10909;53.590;10.054;2022-07-25T06:40:58;26.70;45.00
21495;DHT22;10909;53.590;10.054;2022-07-25T06:43:24;26.70;45.00
21495;DHT22;10909;53.590;10.054;2022-07-25T06:45:50;26.80;45.00
21495;DHT22;10909;53.590;10.054;2022-07-25T06:48:16;26.90;45.00
21495;DHT22;10909;53.590;10.054;2022-07-25T06:50:43;26.90;44.80
21495;DHT22;10909;53.590;10.054;2022-07-25T06:53:08;27.00;44.70
21495;DHT22;10909;53.590;10.054;2022-07-25T06:55:34;27.10;44.60
21495;DHT22;10909;53.590;10.054;2022-07-25T06:58:00;27.20;44.70
21495;DHT22;10909;53.590;10.054;2022-07-25T07:00:26;27.30;44.60
21495;DHT22;10909;53.590;10.054;2022-07-25T07:02:53;27.30;44.40
21495;DHT22;10909;53.590;10.054;2022-07-25T07:05:21;27.40;44.10
21495;DHT22;10909;53.590;10.054;2022-07-25T07:07:47;27.40;44.10
21495;DHT22;10909;53.590;10.054;2022-07-25T07:10:15;27.50;44.20
21495;DHT22;10909;53.590;10.054;2022-07-25T07:12:40;27.50;44.10
21495;DHT22;10909;53.590;10.054;2022-07-25T07:15:06;27.60;44.10
21495;DHT22;10909;53.590;10.054;2022-07-25T07:17:32;27.60;44.10
21495;DHT22;10909;53.590;10.054;2022-07-25T07:19:58;27.70;44.20
21495;DHT22;10909;53.590;10.054;2022-07-25T07:22:23;27.80;44.20
21495;DHT22;10909;53.590;10.054;2022-07-25T07:24:49;27.80;44.20
21495;DHT22;10909;53.590;10.054;2022-07-25T07:27:15;27.90;44.20
21495;DHT22;10909;53.590;10.054;2022-07-25T07:29:40;28.00;44.10
21495;DHT22;10909;53.590;10.054;2022-07-25T07:32:07;28.00;43.90
21495;DHT22;10909;53.590;10.054;2022-07-25T07:34:32;28.10;43.90
21495;DHT22;10909;53.590;10.054;2022-07-25T07:36:58;28.20;44.00
21495;DHT22;10909;53.590;10.054;2022-07-25T07:39:23;28.30;44.30
21495;DHT22;10909;53.590;10.054;2022-07-25T07:41:49;28.30;43.80
21495;DHT22;10909;53.590;10.054;2022-07-25T07:44:15;28.40;43.70
21495;DHT22;10909;53.590;10.054;2022-07-25T07:46:40;28.40;44.00
21495;DHT22;10909;53.590;10.054;2022-07-25T07:49:08;28.50;43.60
21495;DHT22;10909;53.590;10.054;2022-07-25T07:51:33;28.60;43.60
21495;DHT22;10909;53.590;10.054;2022-07-25T07:53:59;28.70;43.50
21495;DHT22;10909;53.590;10.054;2022-07-25T07:56:44;28.80;43.40
21495;DHT22;10909;53.590;10.054;2022-07-25T07:59:10;28.90;43.50
21495;DHT22;10909;53.590;10.054;2022-07-25T08:01:35;29.00;43.40
21495;DHT22;10909;53.590;10.054;2022-07-25T08:04:01;29.10;43.30
21495;DHT22;10909;53.590;10.054;2022-07-25T08:06:27;29.20;43.30
21495;DHT22;10909;53.590;10.054;2022-07-25T08:08:53;29.20;43.20
21495;DHT22;10909;53.590;10.054;2022-07-25T08:11:19;29.30;43.10
21495;DHT22;10909;53.590;10.054;2022-07-25T08:13:44;29.50;42.70
21495;DHT22;10909;53.590;10.054;2022-07-25T08:16:11;29.50;42.80
21495;DHT22;10909;53.590;10.054;2022-07-25T08:18:38;29.60;42.70
21495;DHT22;10909;53.590;10.054;2022-07-25T08:21:07;29.70;42.70
21495;DHT22;10909;53.590;10.054;2022-07-25T08:23:33;29.80;42.20
21495;DHT22;10909;53.590;10.054;2022-07-25T08:26:00;29.90;43.00
21495;DHT22;10909;53.590;10.054;2022-07-25T08:28:27;30.00;42.30
21495;DHT22;10909;53.590;10.054;2022-07-25T08:30:53;30.10;42.10
21495;DHT22;10909;53.590;10.054;2022-07-25T08:33:19;30.20;42.60
21495;DHT22;10909;53.590;10.054;2022-07-25T08:35:54;30.20;41.90
21495;DHT22;10909;53.590;10.054;2022-07-25T08:38:25;30.30;41.80
21495;DHT22;10909;53.590;10.054;2022-07-25T08:40:52;30.40;41.50
21495;DHT22;10909;53.590;10.054;2022-07-25T08:43:21;30.50;41.40
21495;DHT22;10909;53.590;10.054;2022-07-25T08:45:49;30.60;41.20
21495;DHT22;10909;53.590;10.054;2022-07-25T08:48:20;30.70;40.80
21495;DHT22;10909;53.590;10.054;2022-07-25T08:50:47;30.90;40.90
21495;DHT22;10909;53.590;10.054;2022-07-25T08:53:15;31.00;40.80
21495;DHT22;10909;53.590;10.054;2022-07-25T08:55:42;31.10;40.60
21495;DHT22;10909;53.590;10.054;2022-07-25T08:58:10;31.20;40.30
21495;DHT22;10909;53.590;10.054;2022-07-25T09:00:37;31.30;40.00
21495;DHT22;10909;53.590;10.054;2022-07-25T09:03:04;31.40;39.90
21495;DHT22;10909;53.590;10.054;2022-07-25T09:05:33;31.60;39.70
21495;DHT22;10909;53.590;10.054;2022-07-25T09:08:10;31.70;39.60
21495;DHT22;10909;53.590;10.054;2022-07-25T09:10:37;31.80;39.20
21495;DHT22;10909;53.590;10.054;2022-07-25T09:13:09;31.90;39.40
21495;DHT22;10909;53.590;10.054;2022-07-25T09:15:52;32.10;38.70
21495;DHT22;10909;53.590;10.054;2022-07-25T09:18:24;32.20;38.40
21495;DHT22;10909;53.590;10.054;2022-07-25T09:20:56;32.30;38.90
21495;DHT22;10909;53.590;10.054;2022-07-25T09:23:29;32.40;38.60
21495;DHT22;10909;53.590;10.054;2022-07-25T09:26:12;32.40;38.20
21495;DHT22;10909;53.590;10.054;2022-07-25T09:28:40;32.50;37.90
21495;DHT22;10909;53.590;10.054;2022-07-25T09:31:10;32.60;37.90
21495;DHT22;10909;53.590;10.054;2022-07-25T09:33:53;32.70;37.80
21495;DHT22;10909;53.590;10.054;2022-07-25T09:36:24;32.80;37.00
21495;DHT22;10909;53.590;10.054;2022-07-25T09:38:57;32.80;37.50
21495;DHT22;10909;53.590;10.054;2022-07-25T09:41:35;32.90;37.00
21495;DHT22;10909;53.590;10.054;2022-07-25T09:44:01;33.00;37.70
21495;DHT22;10909;53.590;10.054;2022-07-25T09:46:31;33.10;37.50
21495;DHT22;10909;53.590;10.054;2022-07-25T09:48:58;33.20;36.90
21495;DHT22;10909;53.590;10.054;2022-07-25T09:51:25;33.30;36.80
21495;DHT22;10909;53.590;10.054;2022-07-25T09:53:51;33.40;36.40
21495;DHT22;10909;53.590;10.054;2022-07-25T09:56:17;33.50;36.50
21495;DHT22;10909;53.590;10.054;2022-07-25T09:58:43;33.60;35.70
21495;DHT22;10909;53.590;10.054;2022-07-25T10:01:09;33.60;35.50
21495;DHT22;10909;53.590;10.054;2022-07-25T10:06:43;33.70;34.50
21495;DHT22;10909;53.590;10.054;2022-07-25T10:09:14;33.80;35.10
21495;DHT22;10909;53.590;10.054;2022-07-25T10:11:40;33.90;35.30
21495;DHT22;10909;53.590;10.054;2022-07-25T10:14:26;33.90;35.20
21495;DHT22;10909;53.590;10.054;2022-07-25T10:16:52;34.00;35.10
21495;DHT22;10909;53.590;10.054;2022-07-25T10:19:43;34.10;35.10
21495;DHT22;10909;53.590;10.054;2022-07-25T10:22:10;34.10;34.20
21495;DHT22;10909;53.590;10.054;2022-07-25T10:24:37;34.30;35.10
21495;DHT22;10909;53.590;10.054;2022-07-25T10:27:08;34.30;34.70
21495;DHT22;10909;53.590;10.054;2022-07-25T10:29:36;34.40;34.40
21495;DHT22;10909;53.590;10.054;2022-07-25T10:32:07;34.50;34.40
21495;DHT22;10909;53.590;10.054;2022-07-25T10:34:34;34.60;33.70
21495;DHT22;10909;53.590;10.054;2022-07-25T10:37:12;34.60;33.70
21495;DHT22;10909;53.590;10.054;2022-07-25T10:39:43;34.60;33.40
21495;DHT22;10909;53.590;10.054;2022-07-25T10:42:19;34.70;33.90
21495;DHT22;10909;53.590;10.054;2022-07-25T10:44:52;34.80;33.60
21495;DHT22;10909;53.590;10.054;2022-07-25T10:47:22;34.70;33.60
21495;DHT22;10909;53.590;10.054;2022-07-25T10:49:55;34.80;33.80
21495;DHT22;10909;53.590;10.054;2022-07-25T10:52:26;34.80;33.70
21495;DHT22;10909;53.590;10.054;2022-07-25T10:54:55;34.80;33.60
21495;DHT22;10909;53.590;10.054;2022-07-25T10:57:22;34.80;33.70
21495;DHT22;10909;53.590;10.054;2022-07-25T10:59:48;34.80;33.50
21495;DHT22;10909;53.590;10.054;2022-07-25T11:02:14;34.80;33.70
21495;DHT22;10909;53.590;10.054;2022-07-25T11:04:44;34.80;33.50
21495;DHT22;10909;53.590;10.054;2022-07-25T11:07:14;34.80;34.30
21495;DHT22;10909;53.590;10.054;2022-07-25T11:09:42;34.80;33.50
21495;DHT22;10909;53.590;10.054;2022-07-25T11:12:08;34.90;33.70
21495;DHT22;10909;53.590;10.054;2022-07-25T11:14:39;34.90;33.50
21495;DHT22;10909;53.590;10.054;2022-07-25T11:19:41;34.80;32.90
21495;DHT22;10909;53.590;10.054;2022-07-25T11:22:07;34.80;33.00
21495;DHT22;10909;53.590;10.054;2022-07-25T11:27:01;34.80;33.10
21495;DHT22;10909;53.590;10.054;2022-07-25T11:29:27;34.80;33.10
21495;DHT22;10909;53.590;10.054;2022-07-25T11:31:56;34.80;33.30
21495;DHT22;10909;53.590;10.054;2022-07-25T11:34:27;34.80;33.20
21495;DHT22;10909;53.590;10.054;2022-07-25T11:36:54;34.80;33.10
21495;DHT22;10909;53.590;10.054;2022-07-25T11:39:29;34.80;33.20
21495;DHT22;10909;53.590;10.054;2022-07-25T11:42:24;34.90;33.00
21495;DHT22;10909;53.590;10.054;2022-07-25T11:44:52;34.90;32.90
21495;DHT22;10909;53.590;10.054;2022-07-25T11:47:31;35.00;33.30
21495;DHT22;10909;53.590;10.054;2022-07-25T11:50:00;35.10;33.10
21495;DHT22;10909;53.590;10.054;2022-07-25T11:52:30;35.20;33.30
21495;DHT22;10909;53.590;10.054;2022-07-25T11:55:02;35.20;33.30
21495;DHT22;10909;53.590;10.054;2022-07-25T11:57:33;35.30;33.00
21495;DHT22;10909;53.590;10.054;2022-07-25T12:00:07;35.40;32.70
21495;DHT22;10909;53.590;10.054;2022-07-25T12:02:34;35.50;32.30
21495;DHT22;10909;53.590;10.054;2022-07-25T12:05:10;35.50;32.00
21495;DHT22;10909;53.590;10.054;2022-07-25T12:07:49;35.50;31.20
21495;DHT22;10909;53.590;10.054;2022-07-25T12:10:30;35.60;31.10
21495;DHT22;10909;53.590;10.054;2022-07-25T12:12:57;35.50;31.20
21495;DHT22;10909;53.590;10.054;2022-07-25T12:15:27;35.60;31.40
21495;DHT22;10909;53.590;10.054;2022-07-25T12:17:54;35.60;31.30
21495;DHT22;10909;53.590;10.054;2022-07-25T12:20:35;35.70;31.30
21495;DHT22;10909;53.590;10.054;2022-07-25T12:23:05;35.80;30.30
21495;DHT22;10909;53.590;10.054;2022-07-25T12:25:32;35.80;31.40
21495;DHT22;10909;53.590;10.054;2022-07-25T12:28:00;36.00;30.60
21495;DHT22;10909;53.590;10.054;2022-07-25T12:30:27;36.00;30.80
21495;DHT22;10909;53.590;10.054;2022-07-25T12:32:53;36.20;30.60
21495;DHT22;10909;53.590;10.054;2022-07-25T12:35:19;36.20;30.70
21495;DHT22;10909;53.590;10.054;2022-07-25T12:37:45;36.30;30.50
21495;DHT22;10909;53.590;10.054;2022-07-25T12:40:12;36.30;30.40
21495;DHT22;10909;53.590;10.054;2022-07-25T12:42:38;36.40;30.10
21495;DHT22;10909;53.590;10.054;2022-07-25T12:45:04;36.50;30.10
21495;DHT22;10909;53.590;10.054;2022-07-25T12:47:32;36.40;29.80
21495;DHT22;10909;53.590;10.054;2022-07-25T12:49:57;36.50;29.70
21495;DHT22;10909;53.590;10.054;2022-07-25T12:52:23;36.50;29.80
21495;DHT22;10909;53.590;10.054;2022-07-25T12:54:49;36.50;30.00
21495;DHT22;10909;53.590;10.054;2022-07-25T12:57:18;36.60;29.90
21495;DHT22;10909;53.590;10.054;2022-07-25T12:59:45;36.50;29.70
21495;DHT22;10909;53.590;10.054;2022-07-25T13:02:31;36.40;29.60
21495;DHT22;10909;53.590;10.054;2022-07-25T13:04:57;36.30;29.60
21495;DHT22;10909;53.590;10.054;2022-07-25T13:07:22;36.20;29.70
21495;DHT22;10909;53.590;10.054;2022-07-25T13:09:48;36.00;29.90
21495;DHT22;10909;53.590;10.054;2022-07-25T13:12:14;35.90;30.00
21495;DHT22;10909;53.590;10.054;2022-07-25T13:14:39;35.70;30.00
21495;DHT22;10909;53.590;10.054;2022-07-25T13:17:05;35.70;30.30
21495;DHT22;10909;53.590;10.054;2022-07-25T13:19:31;35.70;30.90
21495;DHT22;10909;53.590;10.054;2022-07-25T13:21:57;35.70;31.20
21495;DHT22;10909;53.590;10.054;2022-07-25T13:24:23;35.70;31.30
21495;DHT22;10909;53.590;10.054;2022-07-25T13:26:49;35.80;31.30
21495;DHT22;10909;53.590;10.054;2022-07-25T13:29:14;35.80;31.10
21495;DHT22;10909;53.590;10.054;2022-07-25T13:31:41;35.80;31.70
21495;DHT22;10909;53.590;10.054;2022-07-25T13:34:08;35.90;31.80
21495;DHT22;10909;53.590;10.054;2022-07-25T13:36:35;35.90;31.10
21495;DHT22;10909;53.590;10.054;2022-07-25T13:39:01;36.00;31.10
21495;DHT22;10909;53.590;10.054;2022-07-25T13:41:27;36.00;31.10
21495;DHT22;10909;53.590;10.054;2022-07-25T13:43:53;36.00;31.20
21495;DHT22;10909;53.590;10.054;2022-07-25T13:46:19;35.90;31.30
21495;DHT22;10909;53.590;10.054;2022-07-25T13:48:44;35.90;31.50
21495;DHT22;10909;53.590;10.054;2022-07-25T13:51:10;35.90;31.60
21495;DHT22;10909;53.590;10.054;2022-07-25T13:53:36;35.90;31.70
21495;DHT22;10909;53.590;10.054;2022-07-25T13:56:02;35.90;31.60
21495;DHT22;10909;53.590;10.054;2022-07-25T13:58:27;35.80;31.60
21495;DHT22;10909;53.590;10.054;2022-07-25T14:00:53;35.70;31.60
21495;DHT22;10909;53.590;10.054;2022-07-25T14:03:19;35.70;31.80
21495;DHT22;10909;53.590;10.054;2022-07-25T14:05:45;35.60;31.90
21495;DHT22;10909;53.590;10.054;2022-07-25T14:08:11;35.50;32.10
21495;DHT22;10909;53.590;10.054;2022-07-25T14:10:37;35.40;32.30
21495;DHT22;10909;53.590;10.054;2022-07-25T14:13:03;35.40;32.60
21495;DHT22;10909;53.590;10.054;2022-07-25T14:15:29;35.40;32.80
21495;DHT22;10909;53.590;10.054;2022-07-25T14:17:54;35.40;32.90
21495;DHT22;10909;53.590;10.054;2022-07-25T14:20:20;35.40;32.90
21495;DHT22;10909;53.590;10.054;2022-07-25T14:22:46;35.40;33.30
21495;DHT22;10909;53.590;10.054;2022-07-25T14:25:12;35.20;34.00
21495;DHT22;10909;53.590;10.054;2022-07-25T14:27:38;35.10;34.70
21495;DHT22;10909;53.590;10.054;2022-07-25T14:30:05;34.90;34.90
21495;DHT22;10909;53.590;10.054;2022-07-25T14:32:31;34.70;35.60
21495;DHT22;10909;53.590;10.054;2022-07-25T14:34:57;34.50;36.10
21495;DHT22;10909;53.590;10.054;2022-07-25T14:37:25;34.20;36.40
21495;DHT22;10909;53.590;10.054;2022-07-25T14:39:51;34.00;36.70
21495;DHT22;10909;53.590;10.054;2022-07-25T14:42:17;33.70;37.30
21495;DHT22;10909;53.590;10.054;2022-07-25T14:44:43;33.60;37.50
21495;DHT22;10909;53.590;10.054;2022-07-25T14:47:08;33.40;37.50
21495;DHT22;10909;53.590;10.054;2022-07-25T14:49:34;33.20;37.60
21495;DHT22;10909;53.590;10.054;2022-07-25T14:52:01;33.00;37.70
21495;DHT22;10909;53.590;10.054;2022-07-25T14:54:26;32.80;38.10
21495;DHT22;10909;53.590;10.054;2022-07-25T14:56:56;32.60;38.30
21495;DHT22;10909;53.590;10.054;2022-07-25T14:59:22;32.40;38.60
21495;DHT22;10909;53.590;10.054;2022-07-25T15:01:49;32.20;38.80
21495;DHT22;10909;53.590;10.054;2022-07-25T15:04:15;32.00;38.90
21495;DHT22;10909;53.590;10.054;2022-07-25T15:06:44;31.80;39.40
21495;DHT22;10909;53.590;10.054;2022-07-25T15:09:10;31.50;39.00
21495;DHT22;10909;53.590;10.054;2022-07-25T15:11:35;31.40;39.40
21495;DHT22;10909;53.590;10.054;2022-07-25T15:14:01;31.20;40.00
21495;DHT22;10909;53.590;10.054;2022-07-25T15:16:27;30.90;40.60
21495;DHT22;10909;53.590;10.054;2022-07-25T15:18:53;30.60;41.30
21495;DHT22;10909;53.590;10.054;2022-07-25T15:21:21;30.30;42.10
21495;DHT22;10909;53.590;10.054;2022-07-25T15:23:46;30.00;41.30